createdAt,value
2019-05-26T00:00:55.050Z,99696.77
2019-05-26T00:03:24.613Z,99697.06
2019-05-26T00:05:54.043Z,99699.47
2019-05-26T00:08:23.557Z,99699.16
2019-05-26T00:10:53.103Z,99699.83
2019-05-26T00:13:22.778Z,99703.67
2019-05-26T00:15:52.233Z,99705.98
2019-05-26T00:18:21.663Z,99712.11
2019-05-26T00:20:51.286Z,99713.02
2019-05-26T00:23:20.724Z,99711.49
2019-05-26T00:25:50.204Z,99717.09
2019-05-26T00:28:19.675Z,99716.45
2019-05-26T00:30:49.132Z,99717.06
2019-05-26T00:33:18.756Z,99719.78
2019-05-26T00:35:48.212Z,99718.48
2019-05-26T00:38:17.657Z,99723.23
2019-05-26T00:40:47.311Z,99725.18
2019-05-26T00:43:16.833Z,99715.06
2019-05-26T00:45:46.404Z,99716.42
2019-05-26T00:48:15.832Z,99716.76
2019-05-26T00:50:45.402Z,99717.90
2019-05-26T00:53:14.908Z,99721.54
2019-05-26T00:55:44.360Z,99721.11
2019-05-26T00:58:13.806Z,99721.63
2019-05-26T01:00:43.687Z,99721.66
2019-05-26T01:03:13.143Z,99726.66
2019-05-26T01:05:42.734Z,99729.80
2019-05-26T01:08:12.356Z,99727.66
2019-05-26T01:10:41.854Z,99721.15
2019-05-26T01:13:11.305Z,99723.57
2019-05-26T01:15:40.865Z,99720.91
2019-05-26T01:18:10.335Z,99722.31
2019-05-26T01:20:39.850Z,99725.59
2019-05-26T01:23:09.350Z,99726.02
2019-05-26T01:25:38.784Z,99729.89
2019-05-26T01:28:08.237Z,99723.36
2019-05-26T01:30:38.699Z,99724.19
2019-05-26T01:33:08.133Z,99725.97
2019-05-26T01:35:39.535Z,99733.09
2019-05-26T01:38:22.322Z,99724.55
2019-05-26T01:40:41.665Z,99728.97
2019-05-26T01:43:11.122Z,99729.00
2019-05-26T01:45:40.574Z,99724.20
2019-05-26T01:48:10.027Z,99737.59
2019-05-26T01:50:39.457Z,99735.26
2019-05-26T01:53:08.885Z,99727.98
2019-05-26T01:55:38.330Z,99730.70
2019-05-26T01:58:07.764Z,99730.70
2019-05-26T02:00:37.219Z,99731.74
2019-05-26T02:03:06.635Z,99735.08
2019-05-26T02:05:36.242Z,99732.58
2019-05-26T02:08:05.823Z,99733.27
2019-05-26T02:10:35.248Z,99734.42
2019-05-26T02:13:04.721Z,99734.22
2019-05-26T02:15:34.142Z,99735.57
2019-05-26T02:18:03.601Z,99735.78
2019-05-26T02:20:33.017Z,99738.80
2019-05-26T02:23:02.458Z,99733.07
2019-05-26T02:25:31.882Z,99734.81
2019-05-26T02:28:01.328Z,99738.88
2019-05-26T02:30:30.793Z,99742.11
2019-05-26T02:33:00.306Z,99741.52
2019-05-26T02:35:29.736Z,99743.18
2019-05-26T02:37:59.155Z,99745.27
2019-05-26T02:40:28.606Z,99747.25
2019-05-26T02:42:58.047Z,99747.14
2019-05-26T02:45:27.461Z,99755.20
2019-05-26T02:47:56.914Z,99754.86
2019-05-26T02:50:26.344Z,99762.29
2019-05-26T02:52:55.920Z,99762.60
2019-05-26T02:55:25.465Z,99767.39
2019-05-26T02:57:55.079Z,99768.19
2019-05-26T03:00:44.613Z,99767.16
2019-05-26T03:03:14.964Z,99769.45
2019-05-26T03:05:45.543Z,99765.70
2019-05-26T03:08:15.206Z,99767.37
2019-05-26T03:10:44.828Z,99772.89
2019-05-26T03:13:17.818Z,99777.14
2019-05-26T03:15:48.785Z,99778.70
2019-05-26T03:18:18.786Z,99773.77
2019-05-26T03:20:48.225Z,99774.16
2019-05-26T03:23:17.747Z,99781.20
2019-05-26T03:25:47.176Z,99786.13
2019-05-26T03:28:16.612Z,99787.68
2019-05-26T03:30:46.034Z,99805.33
2019-05-26T03:33:15.519Z,99799.85
2019-05-26T03:35:44.953Z,99800.17
2019-05-26T03:38:14.386Z,99795.70
2019-05-26T03:40:43.806Z,99799.98
2019-05-26T03:43:13.262Z,99799.92
2019-05-26T03:46:20.170Z,99803.80
2019-05-26T03:48:50.178Z,99800.20
2019-05-26T03:51:19.713Z,99787.98
2019-05-26T03:53:49.138Z,99797.09
2019-05-26T03:56:18.575Z,99801.34
2019-05-26T03:58:48.052Z,99801.25
2019-05-26T04:01:17.457Z,99794.49
2019-05-26T04:03:46.895Z,99795.28
2019-05-26T04:06:16.313Z,99809.83
2019-05-26T04:08:45.868Z,99800.17
2019-05-26T04:11:15.252Z,99753.23
2019-05-26T04:13:44.737Z,99812.83
2019-05-26T04:16:14.275Z,99812.95
2019-05-26T04:18:43.744Z,99812.30
2019-05-26T04:21:13.282Z,99811.22
2019-05-26T04:23:42.708Z,99817.80
2019-05-26T04:26:12.167Z,99822.91
2019-05-26T04:28:41.579Z,99827.16
2019-05-26T04:31:11.005Z,99828.97
2019-05-26T04:33:40.445Z,99830.50
2019-05-26T04:36:09.869Z,99827.72
2019-05-26T04:38:39.318Z,99824.32
2019-05-26T04:41:08.747Z,99832.47
2019-05-26T04:43:38.150Z,99836.09
2019-05-26T04:46:07.637Z,99837.48
2019-05-26T04:48:37.056Z,99846.36
2019-05-26T04:51:06.466Z,99835.36
2019-05-26T04:53:36.114Z,99836.58
2019-05-26T04:56:05.524Z,99838.47
2019-05-26T04:58:34.988Z,99832.94
2019-05-26T05:01:04.414Z,99834.88
2019-05-26T05:03:33.828Z,99834.23
2019-05-26T05:06:03.250Z,99836.80
2019-05-26T05:08:32.687Z,99827.41
2019-05-26T05:11:02.266Z,99827.41
2019-05-26T05:13:31.675Z,99837.82
2019-05-26T05:16:01.140Z,99839.29
2019-05-26T05:18:30.581Z,99844.17
2019-05-26T05:20:59.999Z,99847.70
2019-05-26T05:23:29.439Z,99845.00
2019-05-26T05:25:58.874Z,99845.44
2019-05-26T05:28:28.504Z,99853.50
2019-05-26T05:30:58.196Z,99855.95
2019-05-26T05:33:27.669Z,99860.48
2019-05-26T05:35:57.218Z,99858.97
2019-05-26T05:38:26.659Z,99851.20
2019-05-26T05:40:59.796Z,99858.02
2019-05-26T05:43:27.233Z,99853.59
2019-05-26T05:45:56.813Z,99850.61
2019-05-26T05:48:30.454Z,99853.50
2019-05-26T05:50:59.961Z,99854.52
2019-05-26T05:53:29.450Z,99848.91
2019-05-26T05:55:58.917Z,99852.03
2019-05-26T05:58:28.473Z,99851.76
2019-05-26T06:00:57.891Z,99853.60
2019-05-26T06:03:27.406Z,99856.91
2019-05-26T06:05:56.948Z,99865.94
2019-05-26T06:08:26.404Z,99864.19
2019-05-26T06:10:55.991Z,99863.73
2019-05-26T06:13:25.465Z,99868.10
2019-05-26T06:15:54.888Z,99869.70
2019-05-26T06:18:24.360Z,99866.41
2019-05-26T06:20:53.918Z,99870.31
2019-05-26T06:23:23.580Z,99871.98
2019-05-26T06:25:53.017Z,99870.80
2019-05-26T06:28:22.546Z,99866.23
2019-05-26T06:30:51.983Z,99863.50
2019-05-26T06:33:21.573Z,99846.98
2019-05-26T06:35:51.208Z,99855.83
2019-05-26T06:38:20.678Z,99850.83
2019-05-26T06:40:50.225Z,99854.11
2019-05-26T06:43:19.768Z,99858.03
2019-05-26T06:45:49.337Z,99854.39
2019-05-26T06:48:18.744Z,99850.86
2019-05-26T06:50:48.221Z,99852.20
2019-05-26T06:53:17.760Z,99845.62
2019-05-26T06:55:47.184Z,99854.56
2019-05-26T06:58:16.722Z,99853.17
2019-05-26T07:00:46.262Z,99853.14
2019-05-26T07:03:15.715Z,99851.70
2019-05-26T07:05:45.205Z,99851.58
2019-05-26T07:08:14.625Z,99859.80
2019-05-26T07:10:44.153Z,99864.68
2019-05-26T07:13:13.620Z,99858.92
2019-05-26T07:15:43.084Z,99867.82
2019-05-26T07:18:12.590Z,99863.06
2019-05-26T07:20:42.276Z,99866.70
2019-05-26T07:23:11.793Z,99859.79
2019-05-26T07:25:41.525Z,99862.95
2019-05-26T07:28:10.992Z,99860.04
2019-05-26T07:30:40.489Z,99856.87
2019-05-26T07:33:10.154Z,99856.04
2019-05-26T07:35:39.718Z,99854.42
2019-05-26T07:38:09.229Z,99842.82
2019-05-26T07:40:38.734Z,99842.89
2019-05-26T07:43:08.172Z,99853.03
2019-05-26T07:45:37.612Z,99841.33
2019-05-26T07:48:07.062Z,99846.59
2019-05-26T07:50:36.508Z,99846.59
2019-05-26T07:53:05.953Z,99851.94
2019-05-26T07:55:35.470Z,99852.65
2019-05-26T07:58:04.930Z,99853.69
2019-05-26T08:00:34.364Z,99857.91
2019-05-26T08:03:03.794Z,99854.85
2019-05-26T08:05:33.245Z,99856.01
2019-05-26T08:08:12.187Z,99854.07
2019-05-26T08:10:33.842Z,99852.67
2019-05-26T08:13:03.249Z,99843.86
2019-05-26T08:15:32.746Z,99847.77
2019-05-26T08:18:02.167Z,99848.91
2019-05-26T08:20:31.582Z,99855.00
2019-05-26T08:23:01.023Z,99855.00
2019-05-26T08:25:30.464Z,99856.51
2019-05-26T08:27:59.916Z,99862.64
2019-05-26T08:30:29.333Z,99862.30
2019-05-26T08:32:58.787Z,99867.97
2019-05-26T08:35:28.213Z,99863.87
2019-05-26T08:37:57.713Z,99865.96
2019-05-26T08:40:27.120Z,99865.83
2019-05-26T08:42:56.556Z,99862.05
2019-05-26T08:45:26.070Z,99861.67
2019-05-26T08:47:55.517Z,99865.31
2019-05-26T08:50:24.952Z,99866.44
2019-05-26T08:52:54.675Z,99865.51
2019-05-26T08:55:24.128Z,99859.75
2019-05-26T08:57:53.579Z,99859.31
2019-05-26T09:00:23.027Z,99858.49
2019-05-26T09:02:55.308Z,99860.70
2019-05-26T09:05:24.751Z,99853.73
2019-05-26T09:07:55.723Z,99855.81
2019-05-26T09:10:25.171Z,99856.92
2019-05-26T09:13:00.761Z,99862.28
2019-05-26T09:15:25.743Z,99870.70
2019-05-26T09:17:55.431Z,99870.79
2019-05-26T09:20:24.873Z,99866.84
2019-05-26T09:22:54.349Z,99869.14
2019-05-26T09:25:23.815Z,99870.74
2019-05-26T09:27:53.248Z,99869.07
2019-05-26T09:30:22.674Z,99864.84
2019-05-26T09:32:52.100Z,99863.92
2019-05-26T09:35:21.569Z,99863.10
2019-05-26T09:37:51.029Z,99868.26
2019-05-26T09:40:20.637Z,99873.69
2019-05-26T09:42:50.145Z,99869.87
2019-05-26T09:45:19.568Z,99867.00
2019-05-26T09:47:49.131Z,99858.83
2019-05-26T09:50:18.579Z,99861.90
2019-05-26T09:52:48.010Z,99861.42
2019-05-26T09:55:17.517Z,99861.72
2019-05-26T09:57:46.927Z,99857.50
2019-05-26T10:00:16.591Z,99863.84
2019-05-26T10:02:46.147Z,99861.23
2019-05-26T10:05:15.792Z,99857.50
2019-05-26T10:07:45.294Z,99857.50
2019-05-26T10:10:14.925Z,99859.02
2019-05-26T10:12:44.614Z,99865.17
2019-05-26T10:15:14.035Z,99857.47
2019-05-26T10:17:43.455Z,99862.22
2019-05-26T10:20:13.056Z,99860.82
2019-05-26T10:22:42.582Z,99855.42
2019-05-26T10:25:12.240Z,99855.11
2019-05-26T10:27:41.946Z,99863.27
2019-05-26T10:30:11.668Z,99852.22
2019-05-26T10:32:41.288Z,99854.34
2019-05-26T10:35:11.308Z,99856.91
2019-05-26T10:37:40.842Z,99853.33
2019-05-26T10:40:11.805Z,99861.78
2019-05-26T10:42:41.263Z,99851.13
2019-05-26T10:45:10.727Z,99848.87
2019-05-26T10:47:40.189Z,99846.41
2019-05-26T10:50:09.634Z,99846.03
2019-05-26T10:52:39.042Z,99837.66
2019-05-26T10:55:08.497Z,99849.28
2019-05-26T10:57:37.926Z,99843.21
2019-05-26T11:00:07.496Z,99842.21
2019-05-26T11:02:36.933Z,99840.84
2019-05-26T11:05:06.407Z,99835.52
2019-05-26T11:07:35.819Z,99833.22
2019-05-26T11:10:05.478Z,99823.82
2019-05-26T11:12:34.960Z,99831.84
2019-05-26T11:15:04.479Z,99828.62
2019-05-26T11:17:33.964Z,99828.05
2019-05-26T11:20:03.483Z,99826.83
2019-05-26T11:22:33.001Z,99821.13
2019-05-26T11:25:02.481Z,99822.22
2019-05-26T11:27:32.022Z,99822.03
2019-05-26T11:30:01.502Z,99824.15
2019-05-26T11:32:32.122Z,99820.07
2019-05-26T11:35:02.357Z,99818.45
2019-05-26T11:37:33.513Z,99825.74
2019-05-26T11:40:02.957Z,99819.61
2019-05-26T11:42:32.641Z,99809.71
2019-05-26T11:45:02.226Z,99820.39
2019-05-26T11:47:31.944Z,99821.55
2019-05-26T11:50:01.447Z,99819.73
2019-05-26T11:52:31.048Z,99820.70
2019-05-26T11:55:00.602Z,99818.99
2019-05-26T11:57:30.103Z,99819.80
2019-05-26T11:59:59.532Z,99812.96
2019-05-26T12:02:29.074Z,99825.20
2019-05-26T12:04:58.597Z,99810.31
2019-05-26T12:07:28.048Z,99809.02
2019-05-26T12:09:57.702Z,99810.87
2019-05-26T12:12:27.184Z,99803.56
2019-05-26T12:14:56.665Z,99813.62
2019-05-26T12:17:26.167Z,99807.31
2019-05-26T12:19:55.611Z,99802.71
2019-05-26T12:22:25.146Z,99805.98
2019-05-26T12:24:54.808Z,99799.65
2019-05-26T12:27:24.453Z,99796.59
2019-05-26T12:29:53.912Z,99791.48
2019-05-26T12:32:23.350Z,99788.41
2019-05-26T12:34:52.866Z,99791.12
2019-05-26T12:37:22.338Z,99777.66
2019-05-26T12:39:51.842Z,99784.05
2019-05-26T12:42:21.292Z,99777.53
2019-05-26T12:44:50.761Z,99780.19
2019-05-26T12:47:20.284Z,99779.39
2019-05-26T12:49:49.864Z,99775.81
2019-05-26T12:52:19.409Z,99780.58
2019-05-26T12:54:48.867Z,99774.61
2019-05-26T12:57:18.393Z,99767.48
2019-05-26T12:59:47.877Z,99771.20
2019-05-26T13:02:17.381Z,99771.80
2019-05-26T13:04:46.899Z,99768.91
2019-05-26T13:07:16.426Z,99773.98
2019-05-26T13:09:45.930Z,99768.23
2019-05-26T13:12:15.409Z,99773.56
2019-05-26T13:14:44.901Z,99764.73
2019-05-26T13:17:14.427Z,99768.88
2019-05-26T13:19:43.870Z,99768.16
2019-05-26T13:22:13.321Z,99762.85
2019-05-26T13:24:42.754Z,99764.07
2019-05-26T13:27:12.174Z,99755.83
2019-05-26T13:29:41.693Z,99756.61
2019-05-26T13:32:11.282Z,99753.52
2019-05-26T13:34:40.789Z,99758.63
2019-05-26T13:37:10.230Z,99755.55
2019-05-26T13:39:39.851Z,99758.41
2019-05-26T13:42:09.359Z,99758.97
2019-05-26T13:44:38.911Z,99750.67
2019-05-26T13:47:08.418Z,99754.59
2019-05-26T13:49:37.976Z,99755.27
2019-05-26T13:52:07.516Z,99758.77
2019-05-26T13:54:36.935Z,99747.90
2019-05-26T13:57:06.409Z,99746.65
2019-05-26T13:59:35.822Z,99744.16
2019-05-26T14:02:05.389Z,99746.51
2019-05-26T14:04:34.791Z,99740.09
2019-05-26T14:07:04.356Z,99733.31
2019-05-26T14:09:33.879Z,99739.63
2019-05-26T14:12:03.466Z,99731.09
2019-05-26T14:14:32.870Z,99729.96
2019-05-26T14:17:02.380Z,99732.23
2019-05-26T14:19:32.043Z,99731.84
2019-05-26T14:22:01.554Z,99735.81
2019-05-26T14:24:31.085Z,99738.41
2019-05-26T14:27:00.656Z,99739.45
2019-05-26T14:29:30.195Z,99745.16
2019-05-26T14:31:59.694Z,99736.99
2019-05-26T14:34:29.131Z,99741.77
2019-05-26T14:36:58.540Z,99740.27
2019-05-26T14:39:27.966Z,99734.09
2019-05-26T14:41:57.390Z,99732.70
2019-05-26T14:44:26.846Z,99722.59
2019-05-26T14:46:56.455Z,99724.94
2019-05-26T14:49:25.976Z,99724.81
2019-05-26T14:51:55.401Z,99729.98
2019-05-26T14:54:24.840Z,99727.33
2019-05-26T14:56:54.260Z,99731.98
2019-05-26T14:59:23.732Z,99728.52
2019-05-26T15:01:53.127Z,99716.96
2019-05-26T15:04:22.543Z,99721.27
2019-05-26T15:06:51.991Z,99713.09
2019-05-26T15:09:25.175Z,99711.19
2019-05-26T15:11:52.606Z,99715.87
2019-05-26T15:14:22.046Z,99723.33
2019-05-26T15:16:51.502Z,99713.63
2019-05-26T15:19:21.014Z,99718.53
2019-05-26T15:21:50.510Z,99724.00
2019-05-26T15:24:20.005Z,99726.84
2019-05-26T15:26:49.572Z,99723.92
2019-05-26T15:29:18.996Z,99726.88
2019-05-26T15:31:48.621Z,99726.92
2019-05-26T15:34:18.119Z,99726.63
2019-05-26T15:36:47.559Z,99729.11
2019-05-26T15:39:17.006Z,99719.39
2019-05-26T15:41:46.439Z,99722.27
2019-05-26T15:44:15.864Z,99724.11
2019-05-26T15:46:45.326Z,99721.02
2019-05-26T15:49:14.854Z,99717.59
2019-05-26T15:51:44.381Z,99716.91
2019-05-26T15:54:13.802Z,99712.70
2019-05-26T15:56:43.295Z,99716.72
2019-05-26T15:59:12.978Z,99710.47
2019-05-26T16:01:42.694Z,99712.05
2019-05-26T16:04:12.291Z,99705.48
2019-05-26T16:06:41.776Z,99710.05
2019-05-26T16:09:11.233Z,99706.55
2019-05-26T16:11:43.404Z,99712.98
2019-05-26T16:14:11.911Z,99708.66
2019-05-26T16:16:42.060Z,99710.98
2019-05-26T16:19:11.677Z,99715.47
2019-05-26T16:21:41.115Z,99707.03
2019-05-26T16:24:10.716Z,99718.42
2019-05-26T16:26:40.135Z,99714.09
2019-05-26T16:29:09.643Z,99717.23
2019-05-26T16:31:39.093Z,99717.02
2019-05-26T16:34:08.630Z,99720.36
2019-05-26T16:36:38.043Z,99720.96
2019-05-26T16:39:08.151Z,99718.53
2019-05-26T16:41:37.589Z,99721.60
2019-05-26T16:44:07.138Z,99720.30
2019-05-26T16:46:36.563Z,99719.78
2019-05-26T16:49:06.252Z,99729.42
2019-05-26T16:51:35.846Z,99727.52
2019-05-26T16:54:05.351Z,99722.03
2019-05-26T16:56:35.010Z,99723.70
2019-05-26T16:59:04.427Z,99725.06
2019-05-26T17:01:33.873Z,99723.16
2019-05-26T17:04:03.306Z,99720.69
2019-05-26T17:06:32.748Z,99720.16
2019-05-26T17:09:02.164Z,99720.41
2019-05-26T17:11:31.629Z,99723.99
2019-05-26T17:14:01.059Z,99727.81
2019-05-26T17:16:30.490Z,99730.56
2019-05-26T17:18:59.968Z,99731.66
2019-05-26T17:21:29.410Z,99724.50
2019-05-26T17:23:58.906Z,99733.00
2019-05-26T17:26:28.564Z,99731.60
2019-05-26T17:28:58.029Z,99727.14
2019-05-26T17:31:27.625Z,99734.82
2019-05-26T17:33:57.209Z,99729.00
2019-05-26T17:36:26.679Z,99730.88
2019-05-26T17:38:56.111Z,99726.15
2019-05-26T17:41:25.591Z,99730.22
2019-05-26T17:43:55.154Z,99731.22
2019-05-26T17:46:24.587Z,99738.83
2019-05-26T17:48:54.005Z,99738.19
2019-05-26T17:51:23.482Z,99738.41
2019-05-26T17:53:52.978Z,99741.33
2019-05-26T17:56:22.474Z,99741.78
2019-05-26T17:58:51.900Z,99751.27
2019-05-26T18:01:21.487Z,99751.96
2019-05-26T18:03:51.038Z,99753.99
2019-05-26T18:06:20.681Z,99755.80
2019-05-26T18:08:50.134Z,99754.28
2019-05-26T18:11:20.464Z,99759.64
2019-05-26T18:13:49.904Z,99761.17
2019-05-26T18:16:19.434Z,99760.77
2019-05-26T18:18:48.909Z,99762.30
2019-05-26T18:21:18.518Z,99767.09
2019-05-26T18:23:48.157Z,99766.95
2019-05-26T18:26:17.604Z,99770.38
2019-05-26T18:28:47.083Z,99774.38
2019-05-26T18:31:16.520Z,99764.70
2019-05-26T18:33:46.002Z,99770.62
2019-05-26T18:36:15.455Z,99775.44
2019-05-26T18:38:44.910Z,99775.39
2019-05-26T18:41:14.477Z,99787.39
2019-05-26T18:43:44.075Z,99793.59
2019-05-26T18:46:13.492Z,99792.92
2019-05-26T18:48:42.936Z,99794.23
2019-05-26T18:51:12.406Z,99794.16
2019-05-26T18:53:41.845Z,99797.33
2019-05-26T18:56:11.284Z,99801.89
2019-05-26T18:58:40.837Z,99798.76
2019-05-26T19:01:10.333Z,99807.47
2019-05-26T19:03:39.908Z,99802.67
2019-05-26T19:06:09.517Z,99805.58
2019-05-26T19:08:38.979Z,99803.59
2019-05-26T19:11:08.429Z,99809.53
2019-05-26T19:13:37.914Z,99809.72
2019-05-26T19:16:10.211Z,99814.33
2019-05-26T19:18:40.951Z,99813.14
2019-05-26T19:21:10.404Z,99818.47
2019-05-26T19:23:41.271Z,99820.28
2019-05-26T19:26:10.712Z,99821.59
2019-05-26T19:28:41.618Z,99819.84
2019-05-26T19:31:11.136Z,99829.61
2019-05-26T19:33:44.274Z,99829.78
2019-05-26T19:36:13.807Z,99826.37
2019-05-26T19:38:43.307Z,99827.31
2019-05-26T19:41:12.898Z,99819.56
2019-05-26T19:43:42.605Z,99819.17
2019-05-26T19:46:12.161Z,99818.81
2019-05-26T19:48:41.723Z,99811.89
2019-05-26T19:51:11.186Z,99813.43
2019-05-26T19:53:40.714Z,99806.98
2019-05-26T19:56:10.183Z,99812.61
2019-05-26T19:58:39.675Z,99807.82
2019-05-26T20:01:09.121Z,99804.46
2019-05-26T20:03:38.565Z,99807.59
2019-05-26T20:06:08.111Z,99806.42
2019-05-26T20:08:37.556Z,99805.66
2019-05-26T20:11:06.986Z,99802.69
2019-05-26T20:13:36.476Z,99801.52
2019-05-26T20:16:05.926Z,99802.28
2019-05-26T20:18:35.520Z,99799.15
2019-05-26T20:21:05.046Z,99808.85
2019-05-26T20:23:34.486Z,99810.87
2019-05-26T20:26:03.949Z,99810.27
2019-05-26T20:28:33.392Z,99812.16
2019-05-26T20:31:02.917Z,99810.87
2019-05-26T20:33:32.539Z,99811.70
2019-05-26T20:36:01.979Z,99812.92
2019-05-26T20:38:31.432Z,99814.81
2019-05-26T20:41:00.868Z,99821.97
2019-05-26T20:43:30.425Z,99824.88
2019-05-26T20:45:59.858Z,99816.97
2019-05-26T20:48:29.342Z,99814.78
2019-05-26T20:50:58.890Z,99817.08
2019-05-26T20:53:28.354Z,99818.52
2019-05-26T20:55:57.785Z,99819.98
2019-05-26T20:58:27.271Z,99822.56
2019-05-26T21:00:56.784Z,99818.02
2019-05-26T21:03:26.289Z,99816.45
2019-05-26T21:05:55.748Z,99818.67
2019-05-26T21:08:25.237Z,99817.02
2019-05-26T21:10:54.773Z,99828.05
2019-05-26T21:13:24.487Z,99821.47
2019-05-26T21:15:54.198Z,99828.14
2019-05-26T21:18:23.622Z,99833.51
2019-05-26T21:20:53.309Z,99833.07
2019-05-26T21:23:22.999Z,99834.88
2019-05-26T21:25:52.475Z,99833.16
2019-05-26T21:28:21.993Z,99835.09
2019-05-26T21:30:51.421Z,99837.29
2019-05-26T21:33:20.841Z,99832.33
2019-05-26T21:35:50.293Z,99828.02
2019-05-26T21:38:19.798Z,99829.30
2019-05-26T21:40:49.232Z,99830.66
2019-05-26T21:43:18.698Z,99827.99
2019-05-26T21:45:48.252Z,99819.47
2019-05-26T21:48:17.753Z,99827.86
2019-05-26T21:50:47.245Z,99817.64
2019-05-26T21:53:16.679Z,99819.55
2019-05-26T21:55:46.169Z,99818.11
2019-05-26T21:58:15.645Z,99824.52
2019-05-26T22:00:46.206Z,99815.30
2019-05-26T22:03:15.632Z,99814.73
2019-05-26T22:05:45.047Z,99817.35
2019-05-26T22:08:14.537Z,99815.38
2019-05-26T22:10:44.092Z,99814.43
2019-05-26T22:13:13.659Z,99817.37
2019-05-26T22:15:43.112Z,99820.47
2019-05-26T22:18:12.607Z,99826.34
2019-05-26T22:20:42.108Z,99822.80
2019-05-26T22:23:11.620Z,99821.07
2019-05-26T22:25:41.160Z,99825.59
2019-05-26T22:28:10.607Z,99820.47
2019-05-26T22:30:40.082Z,99813.81
2019-05-26T22:33:09.522Z,99815.70
2019-05-26T22:35:38.966Z,99818.89
2019-05-26T22:38:08.395Z,99810.56
2019-05-26T22:40:38.082Z,99803.77
2019-05-26T22:43:07.555Z,99798.80
2019-05-26T22:45:37.047Z,99799.54
